• Join FlightAware (Why Join?)
  • Login
  • US Flag 
03:52AM EDT


 

Airport Tracker/Info


-or-


 

Live Flight TrackerFlight Track Log ✈ EJA982 ✈ 22-Jun-2013 ✈ KSUN - KOAK

Flight Track Log - Related Links

Times and Time Zones

All times are in EDT time to prevent confusion due to time zone crossing. See the EJA982 flight status page for this flight to view local times or setup timezone preferences in your user account.

Time Position Orientation Groundspeed Altitude Reporting Facility
EDT Latitude Longitude Course Direction KTS MPH feet Rate Location/Type
11:04AM 43.3139 -114.2164 228° Southwest 320 368 12,500  Level Salt Lake Center
11:05AM 43.2289 -114.2947 214° Southwest 355 409 14,600 1,920 Climbing Salt Lake Center
11:06AM 43.1086 -114.9108 229° Southwest  Level Estimated
11:06AM 43.1569 -114.3969 226° Southwest 385 443 16,500  Level Salt Lake Center
11:07AM 43.0291 -115.0329 228° Southwest  Level Estimated
11:07AM 43.0792 -114.5189 229° Southwest 405 466 18,400  Level Salt Lake Center
11:08AM 42.9496 -115.1547 228° Southwest  Level Estimated
11:08AM 43.0078 -114.6328 229° Southwest 417 480 20,300  Level Salt Lake Center
11:09AM 42.8699 -115.2762 228° Southwest  Level Estimated
11:09AM 42.9206 -114.7711 229° Southwest 433 498 22,500  Level Salt Lake Center
11:10AM 42.8436 -114.8892 228° Southwest 438 504 24,500 1,980 Climbing Salt Lake Center
11:11AM 42.7531 -115.0314 229° Southwest 444 511 26,700 1,980 Climbing Salt Lake Center
11:12AM 42.6739 -115.1544 229° Southwest 451 519 28,600 1,980 Climbing Salt Lake Center
11:13AM 42.5808 -115.2986 229° Southwest 453 521 30,900 1,980 Climbing Salt Lake Center
11:14AM 42.4997 -115.4225 228° Southwest 457 526 32,700 1,500 Climbing Salt Lake Center
11:16AM 42.4031 -115.5706 229° Southwest 470 541 34,000 1,080 Climbing Salt Lake Center
11:17AM 42.3167 -115.7008 228° Southwest 482 555 35,000 960 Climbing Salt Lake Center
11:18AM 42.2286 -115.8339 228° Southwest 492 566 36,000 480 Climbing Salt Lake Center
11:19AM 42.1261 -115.9878 228° Southwest 494 568 36,000  Level Salt Lake Center
11:20AM 42.0367 -116.1228 228° Southwest 500 575 36,000  Level Salt Lake Center
11:21AM 41.9325 -116.2783 228° Southwest 502 578 36,000  Level Salt Lake Center
11:22AM 41.8422 -116.4119 228° Southwest 505 581 36,000 120 Level Salt Lake Center
11:23AM 41.7369 -116.5694 228° Southwest 508 585 36,300 840 Climbing Salt Lake Center
11:24AM 41.6497 -116.7011 228° Southwest 499 574 37,800 780 Climbing Salt Lake Center
11:25AM 41.5494 -116.8456 227° Southwest 480 552 38,000 60 Climbing Salt Lake Center
11:26AM 41.4622 -116.9717 227° Southwest 482 555 38,000  Level Salt Lake Center
11:27AM 41.3597 -117.1197 227° Southwest 487 560 38,000  Level Salt Lake Center
11:28AM 41.2722 -117.2469 228° Southwest 488 562 38,000  Level Salt Lake Center
11:29AM 41.1700 -117.3950 227° Southwest 489 563 38,000  Level Salt Lake Center
11:30AM 41.0803 -117.5222 227° Southwest 492 566 38,000  Level Salt Lake Center
11:31AM 40.9761 -117.6706 227° Southwest 494 568 38,000  Level Salt Lake Center
11:32AM 40.8858 -117.7992 227° Southwest 497 572 38,000  Level Salt Lake Center
11:33AM 40.7797 -117.9475 227° Southwest 499 574 38,000  Level Salt Lake Center
11:34AM 40.6869 -118.0769 227° Southwest 505 581 38,000  Level Salt Lake Center
11:35AM 40.5956 -118.2053 227° Southwest 504 580 38,000  Level Salt Lake Center
11:36AM 40.4906 -118.3581 228° Southwest 504 580 38,000  Level Salt Lake Center
11:37AM 40.4394 -118.4767 241° Southwest 503 579 38,000  Level Oakland Center
11:38AM 40.3817 -118.6414 245° Southwest 498 573 38,000  Level Oakland Center
11:39AM 40.3219 -118.8022 244° Southwest 494 568 38,000  Level Oakland Center
11:40AM 40.2636 -118.9628 245° Southwest 491 565 38,000  Level Oakland Center
11:41AM 40.2039 -119.1217 244° Southwest 488 562 38,000  Level Oakland Center
11:42AM 40.1319 -119.3122 244° Southwest 490 564 38,000  Level Oakland Center
11:43AM 40.0731 -119.4700 244° Southwest 486 559 38,000  Level Oakland Center
11:44AM 40.0133 -119.6275 244° Southwest 487 560 38,000  Level Oakland Center
11:45AM 39.9525 -119.7867 244° Southwest 492 566 38,000  Level Oakland Center
11:46AM 39.8953 -119.9414 244° Southwest 480 552 38,000  Level Oakland Center
11:47AM 39.8344 -120.0986 243° Southwest 487 560 38,000  Level Oakland Center
11:48AM 39.7603 -120.2633 240° Southwest 489 563 38,000  Level Oakland Center
11:49AM 39.6864 -120.4117 237° Southwest 490 564 38,000  Level Oakland Center
11:50AM 39.6131 -120.5583 237° Southwest 489 563 38,000  Level Oakland Center
11:51AM 39.5386 -120.7058 237° Southwest 488 562 38,000  Level Oakland Center
11:52AM 39.4656 -120.8519 237° Southwest 487 560 38,000  Level Oakland Center
11:53AM 39.3911 -120.9997 237° Southwest 490 564 38,000  Level Oakland Center
11:54AM 39.3011 -121.1756 237° Southwest 491 565 38,000 -840 Level Oakland Center
11:55AM 39.2281 -121.3192 237° Southwest 486 559 36,300 -1,980 Descending Oakland Center
11:56AM 39.1531 -121.4656 237° Southwest 491 565 34,000 -2,220 Descending Oakland Center
11:57AM 39.0753 -121.6153 236° Southwest 504 580 31,800 -1,500 Descending Oakland Center
11:58AM 38.9825 -121.7514 229° Southwest 511 588 31,000 -420 Descending Oakland Center
11:59AM 38.8853 -121.8806 226° Southwest 508 585 31,000 -60 Level Oakland Center
12:00PM 38.7881 -122.0106 226° Southwest 509 586 30,900 -1,080 Descending Oakland Center
12:01PM 38.7181 -122.1667 240° Southwest 513 590 28,900 -2,460 Descending Oakland Center
12:02PM 38.6600 -122.3222 244° Southwest 478 550 26,000 -3,180 Descending Oakland Center
12:04PM 38.5933 -122.4925 243° Southwest 449 517 22,400 -3,300 Descending Oakland Center
12:05PM 38.5139 -122.6042 228° Southwest 442 509 19,300 -3,060 Descending Oakland Center
12:06PM 38.3950 -122.6256 188° South 445 512 16,200 -2,880 Descending Oakland Center
12:07PM 38.2819 -122.6039 171° South 414 476 13,400 -2,580 Descending Oakland Center
12:08PM 38.1886 -122.5867 172° South 345 397 11,000 -2,460 Descending Oakland Center
12:09PM 38.1033 -122.5697 171° South 315 362 8,400 -2,040 Descending Oakland Center
12:10PM 38.0358 -122.5108 145° Southeast 291 335 6,900 -900 Descending Oakland Center
12:11PM 37.9681 -122.4478 144° Southeast 294 338 6,600 -900 Descending Oakland Center
12:12PM 37.9072 -122.3831 140° Southeast 286 329 5,100 -840 Descending Oakland Center
12:13PM 37.8664 -122.3117 126° Southeast 254 292 4,900 -120 Descending Oakland Center
12:14PM 37.8294 -122.2456 125° Southeast 237 273 4,900 -300 Level Oakland Center
12:15PM 37.7853 -122.1686 126° Southeast 227 261 4,300 -840 Descending Oakland Center
12:16PM 37.7389 -122.1167 138° Southeast 223 257 3,200 -660 Descending Oakland Center
12:17PM 37.7000 -122.0667 135° Southeast 187 215 2,900 -480 Descending Northern Cal TRACON
12:18PM 37.6833 -122.0833 218° Southwest 192 221 2,300 -720 Descending Northern Cal TRACON
12:19PM 37.7000 -122.1167 302° West 155 178 1,500 -840 Descending Northern Cal TRACON
12:20PM 37.7167 -122.1667 293° West 135 155 700 -840 Descending Northern Cal TRACON